Time;durP1;ratioP1;P1;durP2;ratioP2;P2;SDS_P1;SDS_P2;PMS_P1;PMS_P2;Temp;Humidity;BMP_temperature;BMP_pressure;BME280_temperature;BME280_humidity;BME280_pressure;Samples;Min_cycle;Max_cycle;Signal;HPM_P1;HPM_P2
2022/08/07 00:01:25;;;;;;;2.33;1.80;;;;;;;15.04;48.94;101821.38;5105442;28;20031;-30
2022/08/07 00:03:50;;;;;;;1.83;1.73;;;;;;;14.93;48.99;101827.66;5114548;28;20058;-30
2022/08/07 00:06:16;;;;;;;3.38;1.88;;;;;;;14.94;49.08;101813.47;5100785;28;20028;-31
2022/08/07 00:08:41;;;;;;;1.70;1.60;;;;;;;14.90;48.87;101825.03;5090896;28;20028;-28
2022/08/07 00:11:06;;;;;;;2.13;1.50;;;;;;;14.90;49.42;101827.69;5078304;28;20112;-28
2022/08/07 00:13:32;;;;;;;1.48;1.38;;;;;;;14.90;49.28;101827.69;5072939;28;20104;-28
2022/08/07 00:15:58;;;;;;;1.50;1.40;;;;;;;14.79;49.29;101825.13;5064017;28;20024;-28
2022/08/07 00:18:26;;;;;;;1.60;1.50;;;;;;;14.77;49.35;101828.66;5101052;28;20035;-28
2022/08/07 00:21:00;;;;;;;2.10;1.95;;;;;;;14.73;49.29;101825.13;5093311;28;20024;-28
2022/08/07 00:23:26;;;;;;;1.50;1.40;;;;;;;14.67;49.45;101819.88;5082569;28;20019;-28
2022/08/07 00:25:51;;;;;;;3.65;2.10;;;;;;;14.68;49.13;101826.94;5088269;28;20534;-28
2022/08/07 00:28:17;;;;;;;4.25;1.90;;;;;;;14.68;49.25;101817.22;5102228;28;20065;-28
2022/08/07 00:30:42;;;;;;;1.67;1.58;;;;;;;14.61;49.66;101821.69;5112332;28;20020;-28
2022/08/07 00:33:08;;;;;;;2.00;1.90;;;;;;;14.55;49.77;101811.13;5100175;28;20020;-28
2022/08/07 00:35:33;;;;;;;2.47;1.63;;;;;;;14.52;49.63;101808.50;5089116;28;20617;-28
2022/08/07 00:37:59;;;;;;;2.95;1.70;;;;;;;14.52;50.02;101811.16;5090994;28;20024;-28
2022/08/07 00:40:25;;;;;;;3.67;2.00;;;;;;;14.49;49.95;101801.44;5098653;28;20028;-28
2022/08/07 00:42:50;;;;;;;2.88;2.03;;;;;;;14.48;50.03;101810.25;5102114;28;20032;-28
2022/08/07 00:45:16;;;;;;;2.95;2.10;;;;;;;14.47;49.97;101800.56;5090592;28;20035;-28
2022/08/07 00:47:41;;;;;;;1.90;1.80;;;;;;;14.47;50.10;101803.22;5092911;28;20026;-28
2022/08/07 00:50:07;;;;;;;1.67;1.58;;;;;;;14.37;50.08;101807.69;5088877;28;20020;-28
2022/08/07 00:52:33;;;;;;;1.75;1.65;;;;;;;14.37;50.37;101813.00;5094629;28;20114;-28
2022/08/07 00:54:58;;;;;;;2.15;1.73;;;;;;;14.35;50.36;101809.50;5102356;28;20106;-28
2022/08/07 00:57:24;;;;;;;2.38;2.03;;;;;;;14.33;50.35;101805.06;5095299;28;20028;-28
2022/08/07 00:59:50;;;;;;;1.83;1.73;;;;;;;14.34;50.40;101809.50;5075097;28;20031;-28
2022/08/07 01:02:15;;;;;;;1.98;1.88;;;;;;;14.27;50.29;101805.13;5102022;28;20027;-28
2022/08/07 01:04:41;;;;;;;1.58;1.48;;;;;;;14.24;50.30;101806.03;5100692;28;20027;-28
2022/08/07 01:07:06;;;;;;;1.73;1.63;;;;;;;14.17;50.78;101810.47;5080651;28;20437;-30
2022/08/07 01:09:31;;;;;;;2.55;1.70;;;;;;;14.13;50.44;101800.78;5095359;28;20293;-28
2022/08/07 01:11:57;;;;;;;2.72;1.85;;;;;;;14.15;50.64;101806.97;5063349;28;20032;-28
2022/08/07 01:14:23;;;;;;;1.42;1.33;;;;;;;14.09;50.85;101807.88;5091027;28;20051;-28
2022/08/07 01:16:49;;;;;;;1.90;1.80;;;;;;;14.13;50.62;101798.13;5080412;28;20114;-28
2022/08/07 01:19:16;;;;;;;1.85;1.58;;;;;;;14.11;50.82;101798.13;5073952;28;20031;-28
2022/08/07 01:21:41;;;;;;;2.60;1.88;;;;;;;14.06;51.11;101797.28;5085735;28;20031;-28
2022/08/07 01:24:08;;;;;;;2.05;1.73;;;;;;;14.03;51.18;101796.41;5083640;28;20016;-29
2022/08/07 01:26:33;;;;;;;2.53;1.80;;;;;;;13.96;51.39;101793.81;5088671;28;20111;-28
2022/08/07 01:28:59;;;;;;;1.55;1.45;;;;;;;13.95;51.19;101802.66;5094405;28;20559;-28
2022/08/07 01:31:30;;;;;;;1.63;1.52;;;;;;;13.96;50.70;101793.81;5067667;28;20020;-28
2022/08/07 01:33:55;;;;;;;;;;;;;;;13.92;50.96;101799.13;5099561;28;20030;-28
2022/08/07 01:36:22;;;;;;;1.67;1.58;;;;;;;13.84;51.10;101797.38;5071401;28;19912;-28
2022/08/07 01:38:47;;;;;;;2.05;1.95;;;;;;;13.88;50.91;101792.06;5089802;28;20070;-28
2022/08/07 01:41:12;;;;;;;2.17;1.98;;;;;;;13.88;50.92;101798.28;5069600;28;20019;-28
2022/08/07 01:43:38;;;;;;;2.05;1.70;;;;;;;13.86;50.98;101800.03;5081625;28;20497;-28
2022/08/07 01:46:03;;;;;;;2.17;1.90;;;;;;;13.80;51.04;101802.69;5080937;28;20061;-28
2022/08/07 01:48:31;;;;;;;2.05;1.75;;;;;;;13.76;51.38;101795.66;5083796;28;20028;-28
2022/08/07 01:51:02;;;;;;;2.30;2.10;;;;;;;13.77;51.27;101805.41;5085569;28;20027;-28
2022/08/07 01:53:27;;;;;;;;;;;;;;;13.76;51.20;101801.84;5083182;28;20518;-28
2022/08/07 01:56:06;;;;;;;2.07;1.73;;;;;;;13.72;51.42;101793.03;5065545;28;19916;-28
2022/08/07 01:58:33;;;;;;;2.03;1.70;;;;;;;13.67;51.34;101797.47;5097970;28;20657;-28
2022/08/07 02:01:02;;;;;;;2.17;1.80;;;;;;;13.59;51.89;101792.22;5097350;28;20037;-28
2022/08/07 02:03:29;;;;;;;1.83;1.60;;;;;;;13.67;51.82;101797.47;5074844;28;20034;-28
2022/08/07 02:05:58;;;;;;;2.00;1.90;;;;;;;13.62;51.87;101801.91;5078335;28;20535;-28
2022/08/07 02:08:24;;;;;;;2.17;2.08;;;;;;;13.60;51.97;101798.38;5071333;28;20024;-28
2022/08/07 02:10:52;;;;;;;2.28;1.90;;;;;;;13.52;51.97;101794.88;5090325;28;20028;-28
2022/08/07 02:13:20;;;;;;;2.10;2.00;;;;;;;13.53;51.91;101799.28;5109816;28;20038;-28
2022/08/07 02:15:47;;;;;;;1.77;1.65;;;;;;;13.55;51.65;101800.16;5093530;28;20027;-28
2022/08/07 02:18:14;;;;;;;3.30;1.88;;;;;;;13.52;51.66;101801.06;5075404;28;20027;-28
2022/08/07 02:20:41;;;;;;;2.20;2.00;;;;;;;13.45;51.73;101802.81;5093982;28;20034;-28
2022/08/07 02:23:07;;;;;;;1.80;1.70;;;;;;;13.40;51.07;101796.63;5073464;28;20049;-28
2022/08/07 02:25:35;;;;;;;2.17;1.60;;;;;;;13.29;51.46;101799.34;5099351;28;20032;-27
2022/08/07 02:28:01;;;;;;;3.50;2.33;;;;;;;13.35;51.87;101809.03;5072537;28;20559;-27
2022/08/07 02:30:27;;;;;;;2.17;2.00;;;;;;;13.32;51.28;101811.69;5082040;28;20141;-27
2022/08/07 02:32:53;;;;;;;2.17;1.98;;;;;;;13.32;52.11;101799.31;5082503;28;20022;-27
2022/08/07 02:35:19;;;;;;;1.80;1.70;;;;;;;13.29;51.72;101803.72;5102250;28;20375;-27
2022/08/07 02:37:45;;;;;;;3.63;1.77;;;;;;;13.27;52.45;101805.53;5076932;28;20112;-27
2022/08/07 02:40:11;;;;;;;2.00;1.90;;;;;;;13.25;52.11;101808.19;5081477;28;20551;-27
2022/08/07 02:42:37;;;;;;;2.63;1.90;;;;;;;13.21;52.72;101807.28;5087589;28;20023;-27
2022/08/07 02:45:05;;;;;;;2.08;1.92;;;;;;;13.19;52.50;101803.78;5098548;28;20089;-28
2022/08/07 02:47:30;;;;;;;2.70;2.15;;;;;;;13.18;52.53;101806.41;5070661;28;20035;-27
2022/08/07 02:49:55;;;;;;;2.45;2.22;;;;;;;13.16;52.85;101801.13;5085243;28;20027;-27
2022/08/07 02:52:52;;;;;;;2.13;2.03;;;;;;;13.10;52.62;101806.41;5095727;28;20027;-27
2022/08/07 02:55:22;;;;;;;2.28;1.55;;;;;;;13.11;52.82;101805.56;5092760;28;20034;-27
2022/08/07 02:57:48;;;;;;;2.35;2.10;;;;;;;13.09;52.79;101807.31;5112139;28;20031;-27
2022/08/07 03:00:14;;;;;;;2.13;2.03;;;;;;;13.04;52.70;101803.78;5079105;28;20031;-27
2022/08/07 03:02:41;;;;;;;2.83;1.75;;;;;;;13.03;53.09;101802.91;5072982;28;20028;-27
2022/08/07 03:05:08;;;;;;;1.73;1.63;;;;;;;12.98;52.82;101803.78;5090602;28;20398;-27
2022/08/07 03:07:35;;;;;;;2.28;2.13;;;;;;;13.01;53.20;101803.78;5085813;28;20028;-27
2022/08/07 03:10:01;;;;;;;3.03;2.38;;;;;;;12.98;52.91;101803.78;5093694;28;20028;-27
2022/08/07 03:12:27;;;;;;;2.47;2.28;;;;;;;13.00;53.50;101802.03;5081977;28;20048;-27
2022/08/07 03:14:55;;;;;;;2.42;2.10;;;;;;;12.97;53.09;101794.94;5067502;28;20120;-27
2022/08/07 03:17:20;;;;;;;2.42;2.30;;;;;;;12.91;53.24;101803.78;5060724;28;20057;-27
2022/08/07 03:19:46;;;;;;;2.05;1.92;;;;;;;12.88;53.19;101803.81;5061888;28;20024;-27
2022/08/07 03:22:12;;;;;;;2.17;1.90;;;;;;;12.79;53.39;101801.16;5082658;28;20028;-27
2022/08/07 03:24:37;;;;;;;2.15;2.05;;;;;;;12.86;53.57;101805.56;5092814;28;20098;-27
2022/08/07 03:27:03;;;;;;;2.00;1.90;;;;;;;12.86;53.75;101802.91;5080887;28;20039;-27
2022/08/07 03:29:33;;;;;;;2.95;2.20;;;;;;;12.82;54.10;101799.41;5083981;28;20040;-27
2022/08/07 03:32:00;;;;;;;2.50;1.85;;;;;;;12.83;53.77;101800.25;5078536;28;20035;-27
2022/08/07 03:34:26;;;;;;;2.45;2.08;;;;;;;12.83;53.58;101790.56;5110523;28;20019;-27
2022/08/07 03:36:53;;;;;;;2.70;2.05;;;;;;;12.75;54.04;101791.44;5076868;28;20508;-27
2022/08/07 03:39:19;;;;;;;3.13;2.00;;;;;;;12.73;53.79;101794.09;5088791;28;20383;-27
2022/08/07 03:41:44;;;;;;;2.00;1.80;;;;;;;12.76;53.77;101790.56;5069415;28;20483;-27
2022/08/07 03:44:11;;;;;;;2.67;1.95;;;;;;;12.72;53.83;101789.69;5100511;28;20039;-27
2022/08/07 03:46:36;;;;;;;1.98;1.88;;;;;;;12.68;53.97;101795.88;5100465;28;20390;-27
2022/08/07 03:49:02;;;;;;;2.38;2.17;;;;;;;12.72;53.52;101796.75;5072835;28;20019;-27
2022/08/07 03:51:29;;;;;;;2.10;1.90;;;;;;;12.69;53.91;101792.34;5103065;28;20023;-27
2022/08/07 03:53:54;;;;;;;2.22;2.03;;;;;;;12.66;53.96;101798.50;5071570;28;20077;-27
2022/08/07 03:56:21;;;;;;;1.92;1.83;;;;;;;12.63;53.79;101802.91;5090745;28;20032;-27
2022/08/07 03:58:47;;;;;;;2.20;2.00;;;;;;;12.61;53.88;101805.59;5057308;28;20031;-27
2022/08/07 04:01:13;;;;;;;2.30;2.10;;;;;;;12.62;53.98;101801.16;5078450;28;20020;-27
2022/08/07 04:03:38;;;;;;;2.83;2.30;;;;;;;12.59;54.14;101796.75;5096720;28;20031;-27
2022/08/07 04:06:07;;;;;;;2.00;1.88;;;;;;;12.58;53.83;101795.84;5075472;28;20020;-27
2022/08/07 04:08:33;;;;;;;3.47;2.40;;;;;;;12.58;53.89;101795.00;5098357;28;20024;-27
2022/08/07 04:10:58;;;;;;;2.60;1.98;;;;;;;12.56;53.51;101791.44;5081919;28;20038;-27
2022/08/07 04:13:24;;;;;;;2.08;1.98;;;;;;;12.53;53.51;101794.09;5100959;28;20531;-27
2022/08/07 04:15:49;;;;;;;2.20;2.00;;;;;;;12.51;53.34;101787.94;5068355;28;20019;-27
2022/08/07 04:18:15;;;;;;;2.38;2.17;;;;;;;12.49;53.54;101797.59;5086574;28;20266;-27
2022/08/07 04:20:41;;;;;;;2.20;2.10;;;;;;;12.45;53.40;101800.25;5095821;28;20059;-27
2022/08/07 04:23:06;;;;;;;3.42;2.22;;;;;;;12.41;54.04;101800.25;5079501;28;20058;-27
2022/08/07 04:25:32;;;;;;;2.13;2.00;;;;;;;12.37;53.45;101804.66;5104380;28;20027;-27
2022/08/07 04:27:58;;;;;;;3.90;2.00;;;;;;;12.36;53.88;101799.34;5104374;28;20043;-27
2022/08/07 04:30:24;;;;;;;2.38;2.22;;;;;;;12.33;53.86;101800.25;5098907;28;20030;-27
2022/08/07 04:32:49;;;;;;;2.40;2.22;;;;;;;12.38;53.77;101806.44;5098117;28;20027;-27
2022/08/07 04:35:15;;;;;;;3.22;2.40;;;;;;;12.39;53.84;101810.84;5103425;28;20020;-27
2022/08/07 04:37:40;;;;;;;2.30;2.10;;;;;;;12.30;54.43;101806.41;5081736;28;20034;-27
2022/08/07 04:40:06;;;;;;;3.03;2.40;;;;;;;12.34;54.45;101807.28;5069997;28;20512;-27
2022/08/07 04:42:33;;;;;;;2.72;2.30;;;;;;;12.33;54.29;101810.81;5086523;28;20038;-27
2022/08/07 04:45:00;;;;;;;2.20;2.00;;;;;;;12.38;54.70;101816.13;5095622;28;20633;-27
2022/08/07 04:47:42;;;;;;;2.17;1.95;;;;;;;12.37;54.67;101811.72;5080089;28;20111;-27
2022/08/07 04:50:24;;;;;;;2.05;1.95;;;;;;;12.35;54.90;101813.47;5098352;28;20103;-30
2022/08/07 04:52:57;;;;;;;2.95;2.33;;;;;;;12.36;55.18;101810.84;5094580;28;20019;-30
2022/08/07 04:55:29;;;;;;;2.30;2.10;;;;;;;12.34;55.19;101812.56;5108403;28;20028;-30
2022/08/07 04:58:01;;;;;;;2.08;1.95;;;;;;;12.42;54.82;101807.31;5091794;28;20448;-30
2022/08/07 05:00:41;;;;;;;2.30;2.10;;;;;;;12.48;54.87;101809.09;5092605;28;20039;-30
2022/08/07 05:03:25;;;;;;;2.00;1.90;;;;;;;12.50;54.47;101816.13;5085064;28;20035;-28
2022/08/07 05:05:58;;;;;;;2.72;1.98;;;;;;;12.54;54.59;101824.97;5068319;28;20102;-30
2022/08/07 05:08:31;;;;;;;3.47;2.70;;;;;;;12.58;54.57;101826.75;5101652;28;20051;-30
2022/08/07 05:11:09;;;;;;;2.50;2.30;;;;;;;12.60;54.15;101821.47;5088779;28;20055;-30
2022/08/07 05:13:37;;;;;;;2.10;2.00;;;;;;;12.66;54.17;101819.69;5099236;28;20032;-29
2022/08/07 05:16:08;;;;;;;3.40;2.35;;;;;;;12.69;54.15;101827.63;5094427;28;20077;-29
2022/08/07 05:18:35;;;;;;;2.45;2.25;;;;;;;12.72;55.13;101826.75;5054308;28;20035;-30
2022/08/07 05:21:08;;;;;;;2.30;2.10;;;;;;;12.77;54.78;101829.41;5086022;28;20035;-30
2022/08/07 05:23:44;;;;;;;2.25;2.05;;;;;;;12.82;55.21;101827.63;5086081;28;20023;-30
2022/08/07 05:26:30;;;;;;;2.33;2.13;;;;;;;12.89;55.11;101826.75;5081322;28;20095;-30
2022/08/07 05:28:58;;;;;;;2.33;2.13;;;;;;;12.92;54.96;101829.41;5096431;28;20425;-30
2022/08/07 05:31:32;;;;;;;2.42;2.30;;;;;;;13.01;54.39;101824.97;5074173;28;20023;-30
2022/08/07 05:33:58;;;;;;;1.90;1.75;;;;;;;13.02;54.42;101826.72;5090475;28;20030;-27
2022/08/07 05:36:23;;;;;;;2.33;2.10;;;;;;;13.08;54.20;101824.09;5053299;28;20392;-30
2022/08/07 05:38:49;;;;;;;2.20;1.90;;;;;;;13.19;54.10;101818.78;5103176;28;20024;-30
2022/08/07 05:41:15;;;;;;;2.20;2.10;;;;;;;13.27;53.99;101822.28;5082425;28;20031;-30
2022/08/07 05:43:42;;;;;;;2.03;1.92;;;;;;;13.22;54.20;101821.41;5060302;28;20032;-30
2022/08/07 05:46:08;;;;;;;2.85;1.77;;;;;;;13.21;54.00;101823.19;5072266;28;20104;-29
2022/08/07 05:48:33;;;;;;;2.00;1.90;;;;;;;13.29;54.67;101820.53;5074159;28;20087;-30
2022/08/07 05:51:00;;;;;;;2.17;1.98;;;;;;;13.39;54.58;101825.78;5081037;28;20113;-30
2022/08/07 05:53:26;;;;;;;2.28;2.00;;;;;;;13.47;54.04;101824.00;5081350;28;20400;-30
2022/08/07 05:55:53;;;;;;;5.50;2.40;;;;;;;13.57;54.60;101816.97;5089126;28;20032;-27
2022/08/07 05:58:21;;;;;;;2.50;2.30;;;;;;;13.64;54.43;101821.31;5082630;28;20302;-27
2022/08/07 06:00:47;;;;;;;2.83;2.42;;;;;;;13.71;54.50;101820.41;5094209;28;20034;-27
2022/08/07 06:03:13;;;;;;;2.05;1.85;;;;;;;13.80;54.74;101831.88;5075936;28;20032;-27
2022/08/07 06:05:39;;;;;;;2.97;2.28;;;;;;;13.91;54.35;101823.88;5072503;28;20016;-27
2022/08/07 06:08:05;;;;;;;1.85;1.75;;;;;;;13.97;54.30;101824.72;5081881;28;20039;-27
2022/08/07 06:10:31;;;;;;;3.38;2.05;;;;;;;14.07;53.98;101830.00;5102739;28;20083;-27
2022/08/07 06:12:59;;;;;;;3.17;2.00;;;;;;;14.17;53.99;101826.41;5074879;28;20268;-27
2022/08/07 06:15:25;;;;;;;2.05;1.92;;;;;;;14.26;53.98;101820.16;5072492;28;20502;-27
2022/08/07 06:17:51;;;;;;;2.80;2.00;;;;;;;14.37;53.85;101828.94;5079198;28;20506;-27
2022/08/07 06:20:16;;;;;;;2.53;2.35;;;;;;;14.44;53.93;101827.09;5079769;28;20028;-27
2022/08/07 06:22:43;;;;;;;2.20;2.00;;;;;;;14.53;54.58;101831.47;5087056;28;20061;-27
2022/08/07 06:25:08;;;;;;;2.65;2.45;;;;;;;14.62;53.94;101823.47;5088158;28;20027;-27
2022/08/07 06:27:34;;;;;;;2.83;2.60;;;;;;;14.70;54.01;101826.03;5073237;28;20036;-27
2022/08/07 06:30:00;;;;;;;2.42;2.22;;;;;;;14.80;54.05;101826.03;5071131;28;20024;-27
2022/08/07 06:32:25;;;;;;;2.35;2.17;;;;;;;14.88;54.12;101822.38;5102776;28;20395;-27
2022/08/07 06:34:51;;;;;;;2.63;2.30;;;;;;;14.97;54.19;101818.75;5077154;28;20395;-27
2022/08/07 06:37:16;;;;;;;2.63;2.40;;;;;;;15.06;53.95;101827.53;5083768;28;20387;-27
2022/08/07 06:39:41;;;;;;;2.58;2.38;;;;;;;15.19;54.89;101829.19;5079420;28;20130;-27
2022/08/07 06:42:17;;;;;;;2.30;2.20;;;;;;;15.25;53.89;101823.78;5098406;28;20063;-27
2022/08/07 06:44:44;;;;;;;4.43;1.95;;;;;;;15.35;54.12;101819.28;5108380;28;20022;-31
2022/08/07 06:47:09;;;;;;;2.80;2.60;;;;;;;15.45;53.98;101828.03;5065864;28;20029;-30
2022/08/07 06:49:35;;;;;;;2.42;2.22;;;;;;;15.61;54.77;101833.19;5078043;28;20032;-31
2022/08/07 06:52:01;;;;;;;2.70;2.33;;;;;;;15.71;54.04;101825.97;5085619;28;20035;-31
2022/08/07 06:54:27;;;;;;;2.70;2.50;;;;;;;15.78;53.77;101822.34;5079070;28;20050;-30
2022/08/07 06:56:55;;;;;;;2.30;2.10;;;;;;;15.89;53.44;101819.53;5081838;28;20451;-30
2022/08/07 06:59:25;;;;;;;2.72;2.30;;;;;;;16.00;53.31;101825.63;5088093;28;20036;-31
2022/08/07 07:01:51;;;;;;;5.63;2.28;;;;;;;16.12;53.17;101819.28;5074035;28;20037;-31
2022/08/07 07:04:17;;;;;;;2.00;1.90;;;;;;;16.24;52.79;101815.53;5079890;28;20112;-30
2022/08/07 07:06:43;;;;;;;2.13;2.00;;;;;;;16.31;52.87;101816.34;5102204;28;20493;-30
2022/08/07 07:09:15;;;;;;;2.17;2.08;;;;;;;16.49;52.51;101819.59;5070666;28;20160;-30
2022/08/07 07:11:48;;;;;;;2.67;1.88;;;;;;;16.55;52.52;101815.06;5088505;28;20034;-30
2022/08/07 07:14:14;;;;;;;2.70;1.92;;;;;;;16.70;52.19;101821.03;5084136;28;20024;-31
2022/08/07 07:16:41;;;;;;;2.60;1.90;;;;;;;16.84;52.00;101819.94;5085061;28;20034;-31
2022/08/07 07:19:06;;;;;;;2.33;2.13;;;;;;;16.99;52.04;101819.69;5084937;28;20032;-31
2022/08/07 07:21:34;;;;;;;1.65;1.55;;;;;;;17.08;51.73;101815.13;5103445;28;20051;-31
2022/08/07 07:24:00;;;;;;;1.80;1.70;;;;;;;17.23;51.81;101814.81;5061966;28;20016;-28
2022/08/07 07:26:26;;;;;;;1.92;1.58;;;;;;;17.37;51.36;101811.88;5097960;28;20024;-27
2022/08/07 07:28:58;;;;;;;1.65;1.55;;;;;;;17.51;51.43;101805.41;5097099;28;20093;-28
2022/08/07 07:31:32;;;;;;;2.20;1.60;;;;;;;17.67;51.06;101800.63;5081464;28;20546;-28
2022/08/07 07:34:03;;;;;;;1.73;1.60;;;;;;;17.79;50.84;101808.38;5062939;28;20031;-28
2022/08/07 07:36:29;;;;;;;1.63;1.52;;;;;;;17.91;50.65;101804.56;5062744;28;20032;-28
2022/08/07 07:38:55;;;;;;;3.08;1.33;;;;;;;18.07;50.66;101793.53;5093348;28;20510;-28
2022/08/07 07:41:22;;;;;;;1.95;1.50;;;;;;;18.23;50.60;101794.09;5067771;28;20136;-28
2022/08/07 07:43:50;;;;;;;1.92;1.40;;;;;;;18.43;50.48;101803.44;5088629;28;20023;-28
2022/08/07 07:46:15;;;;;;;2.22;1.45;;;;;;;18.52;49.96;101800.53;5095805;28;20472;-28
2022/08/07 07:48:41;;;;;;;1.27;1.20;;;;;;;18.65;50.14;101798.44;5092477;28;20034;-28
2022/08/07 07:51:08;;;;;;;5.40;1.60;;;;;;;18.77;50.05;101791.91;5072758;28;20024;-28
2022/08/07 07:53:36;;;;;;;1.63;1.52;;;;;;;18.94;49.83;101787.94;5080249;28;20102;-28
2022/08/07 07:56:02;;;;;;;1.67;1.15;;;;;;;19.07;49.58;101783.13;5075691;28;20034;-28
2022/08/07 07:58:31;;;;;;;1.75;1.40;;;;;;;19.28;49.03;101784.34;5060132;28;20032;-28
2022/08/07 08:00:57;;;;;;;1.40;1.30;;;;;;;19.41;49.02;101786.69;5076022;28;20028;-28
2022/08/07 08:03:22;;;;;;;1.20;1.10;;;;;;;19.62;48.93;101787.84;5062630;28;20040;-28
2022/08/07 08:05:48;;;;;;;4.55;1.50;;;;;;;19.77;48.23;101781.16;5060878;28;20026;-28
2022/08/07 08:08:14;;;;;;;1.70;1.60;;;;;;;19.86;48.13;101780.88;5075208;28;20115;-28
2022/08/07 08:10:39;;;;;;;1.92;1.15;;;;;;;20.04;47.95;101783.91;5074873;28;20024;-28
2022/08/07 08:13:07;;;;;;;1.67;1.45;;;;;;;20.20;47.78;101786.09;5074965;28;20034;-31
2022/08/07 08:15:35;;;;;;;1.63;1.40;;;;;;;20.24;48.01;101779.75;5075017;28;20443;-31
2022/08/07 08:18:02;;;;;;;1.20;1.00;;;;;;;20.40;47.98;101784.63;5089195;28;20036;-31
2022/08/07 08:20:30;;;;;;;1.17;1.08;;;;;;;20.52;47.70;101784.19;5061992;28;20070;-30
2022/08/07 08:28:25;;;;;;;1.35;1.25;;;;;;;20.99;47.20;101785.31;5092097;28;20081;-31
2022/08/07 08:30:57;;;;;;;1.23;1.13;;;;;;;21.11;46.93;101779.50;5069973;28;20036;-31
2022/08/07 08:33:25;;;;;;;1.00;1.00;;;;;;;21.23;46.96;101780.00;5092880;28;20030;-31
2022/08/07 08:35:53;;;;;;;2.28;1.08;;;;;;;21.27;45.80;101768.22;5058232;28;20034;-30
2022/08/07 08:38:21;;;;;;;2.67;1.30;;;;;;;21.42;45.98;101764.09;5092500;28;20035;-31
2022/08/07 08:40:56;;;;;;;0.93;0.93;;;;;;;21.58;45.92;101763.50;5064538;28;20119;-30
2022/08/07 08:43:30;;;;;;;1.95;1.15;;;;;;;21.71;45.56;101763.91;5054328;28;20059;-30
2022/08/07 08:46:06;;;;;;;1.48;1.13;;;;;;;21.89;45.66;101765.91;5054834;28;20016;-30
2022/08/07 08:48:35;;;;;;;2.15;1.58;;;;;;;21.94;44.98;101771.06;5054624;28;20051;-30
2022/08/07 08:51:07;;;;;;;2.03;1.23;;;;;;;22.02;44.63;101766.31;5073409;28;20028;-30
2022/08/07 08:53:56;;;;;;;1.40;1.00;;;;;;;22.06;43.65;101772.41;5060950;28;20032;-30
2022/08/07 08:56:29;;;;;;;2.25;0.95;;;;;;;22.16;42.78;101760.34;5062186;28;20036;-30
2022/08/07 08:59:13;;;;;;;1.63;1.13;;;;;;;22.32;43.44;101766.91;5059736;28;20035;-30
2022/08/07 09:02:30;;;;;;;1.73;1.13;;;;;;;22.42;43.02;101766.47;5109731;27;20742;-28
2022/08/07 09:05:06;;;;;;;1.17;1.10;;;;;;;22.52;43.23;101769.63;5001660;28;20049;-26
2022/08/07 09:07:37;;;;;;;0.82;0.82;;;;;;;22.68;43.32;101756.44;4990822;28;20030;-25
2022/08/07 09:10:43;;;;;;;1.25;0.85;;;;;;;22.75;42.79;101762.44;5033821;28;20044;-24
2022/08/07 09:13:20;;;;;;;1.20;1.02;;;;;;;22.91;43.57;101762.63;5058805;28;20041;-24
2022/08/07 09:15:57;;;;;;;1.70;1.27;;;;;;;23.05;42.82;101759.31;5066975;28;20052;-24
2022/08/07 09:18:41;;;;;;;1.13;1.00;;;;;;;23.26;43.29;101755.72;5048637;28;20037;-24
2022/08/07 09:21:33;;;;;;;1.00;0.82;;;;;;;23.41;43.25;101755.03;5052373;28;20503;-24
2022/08/07 09:24:20;;;;;;;1.10;0.98;;;;;;;23.55;41.29;101746.34;5048885;28;20633;-24
2022/08/07 09:26:59;;;;;;;0.98;0.90;;;;;;;23.63;40.59;101748.66;5048822;28;20025;-24
2022/08/07 09:29:49;;;;;;;1.42;1.10;;;;;;;23.86;42.08;101752.06;5047528;28;20494;-25
2022/08/07 09:32:24;;;;;;;1.98;1.05;;;;;;;24.09;42.03;101747.38;5048471;28;20029;-25
2022/08/07 09:35:07;;;;;;;1.63;1.00;;;;;;;24.27;40.88;101747.44;5048267;28;20048;-27
2022/08/07 09:37:39;;;;;;;1.38;0.65;;;;;;;24.38;41.58;101742.38;5047027;28;20025;-26
2022/08/07 09:40:12;;;;;;;1.98;1.20;;;;;;;24.56;41.22;101743.25;5047096;28;20029;-26
2022/08/07 09:43:16;;;;;;;1.30;0.80;;;;;;;24.71;40.84;101740.72;5047962;28;20031;-24
2022/08/07 09:45:50;;;;;;;0.82;0.82;;;;;;;24.83;40.54;101733.78;5042022;28;20078;-24
2022/08/07 09:48:56;;;;;;;1.27;1.05;;;;;;;24.97;40.51;101728.56;5063581;28;20021;-25
2022/08/07 09:51:53;;;;;;;2.50;0.70;;;;;;;25.13;39.94;101716.94;5045908;28;20041;-24
2022/08/07 09:54:39;;;;;;;1.52;0.75;;;;;;;25.23;38.81;101714.59;5048246;28;20017;-24
2022/08/07 09:57:38;;;;;;;1.17;1.08;;;;;;;25.28;38.34;101711.66;5046456;28;20506;-23
2022/08/07 10:00:09;;;;;;;0.88;0.60;;;;;;;25.50;39.47;101711.31;5064242;28;20376;-24
2022/08/07 10:03:08;;;;;;;0.90;0.60;;;;;;;25.61;38.74;101708.06;5046625;28;20187;-24
2022/08/07 10:05:46;;;;;;;2.15;0.70;;;;;;;25.64;38.74;101707.00;5050950;28;20021;-24
2022/08/07 10:08:29;;;;;;;4.45;1.00;;;;;;;25.75;38.13;101699.16;5067779;28;20020;-24
2022/08/07 10:11:42;;;;;;;1.40;1.15;;;;;;;25.84;37.92;101704.00;5067008;28;20094;-24
2022/08/07 10:14:39;;;;;;;3.08;1.15;;;;;;;25.94;38.12;101698.94;5039175;28;20052;-24
2022/08/07 10:17:32;;;;;;;2.03;1.05;;;;;;;26.07;38.39;101690.13;5042059;28;20039;-24
2022/08/07 10:20:29;;;;;;;3.05;1.33;;;;;;;26.20;38.04;101688.44;5052318;28;20494;-24
2022/08/07 10:23:24;;;;;;;1.85;0.90;;;;;;;26.24;36.77;101678.31;5034399;28;20026;-24
2022/08/07 10:25:59;;;;;;;2.08;1.02;;;;;;;26.25;38.03;101685.47;5033064;28;20018;-24
2022/08/07 10:29:02;;;;;;;1.48;0.90;;;;;;;26.23;37.05;101682.84;5049417;28;20030;-23
2022/08/07 10:31:46;;;;;;;1.83;0.80;;;;;;;26.20;36.56;101687.53;5035208;28;20462;-23
2022/08/07 10:34:35;;;;;;;1.13;0.82;;;;;;;26.20;36.75;101674.91;5035133;28;20387;-23
2022/08/07 10:37:23;;;;;;;3.10;1.83;;;;;;;26.25;36.97;101672.78;5034652;28;20096;-23
2022/08/07 10:39:57;;;;;;;2.65;1.13;;;;;;;26.26;37.11;101655.63;5033846;28;20450;-24
2022/08/07 10:42:39;;;;;;;1.45;1.20;;;;;;;26.28;36.61;101663.69;5034641;28;20048;-24
2022/08/07 10:45:16;;;;;;;2.33;1.30;;;;;;;26.36;37.38;101655.09;5033043;28;20033;-24
2022/08/07 10:47:48;;;;;;;2.55;1.10;;;;;;;26.41;36.51;101653.00;5032806;28;20026;-24
2022/08/07 10:50:22;;;;;;;1.70;1.00;;;;;;;26.48;37.17;101648.06;5032746;28;20063;-25
2022/08/07 10:52:58;;;;;;;1.67;1.23;;;;;;;26.64;37.46;101648.00;5033756;28;20112;-25
2022/08/07 10:55:30;;;;;;;3.75;1.45;;;;;;;26.75;36.91;101628.38;5033134;28;20028;-25
2022/08/07 10:58:04;;;;;;;1.70;0.93;;;;;;;26.83;36.43;101626.06;5052414;28;20422;-25
2022/08/07 11:00:48;;;;;;;3.63;1.08;;;;;;;26.90;35.22;101631.94;5051559;28;20111;-24
2022/08/07 11:03:19;;;;;;;1.83;0.95;;;;;;;27.01;35.71;101624.03;5052784;28;20414;-25
2022/08/07 11:05:53;;;;;;;;;;;;;;;26.98;34.57;101624.22;5041851;28;20029;-24
2022/08/07 11:08:27;;;;;;;3.10;1.05;;;;;;;27.07;34.53;101617.34;5032187;28;19932;-24
2022/08/07 11:11:12;;;;;;;2.10;0.77;;;;;;;27.28;34.50;101623.19;5032151;28;20013;-23
2022/08/07 11:13:41;;;;;;;0.80;0.75;;;;;;;27.31;33.75;101619.44;5032262;28;20025;-24
2022/08/07 11:16:17;;;;;;;1.92;0.80;;;;;;;27.37;33.71;101613.59;5033194;28;20017;-24
2022/08/07 11:18:52;;;;;;;0.93;0.80;;;;;;;27.41;33.38;101619.72;5032611;28;20021;-24
2022/08/07 11:21:28;;;;;;;1.05;0.80;;;;;;;27.40;33.15;101615.25;5051898;28;20402;-24
2022/08/07 11:24:19;;;;;;;1.80;0.88;;;;;;;27.42;33.32;101603.31;5050872;28;20025;-24
2022/08/07 11:27:17;;;;;;;0.90;0.70;;;;;;;27.54;33.56;101607.06;5052047;28;20044;-24
2022/08/07 11:30:06;;;;;;;3.10;0.90;;;;;;;27.56;33.03;101612.38;5051683;28;20055;-23
2022/08/07 11:32:53;;;;;;;0.80;0.50;;;;;;;27.68;33.01;101616.16;5067683;28;20021;-24
2022/08/07 11:35:21;;;;;;;1.50;0.65;;;;;;;27.75;33.70;101612.06;5052661;28;20064;-24
2022/08/07 11:37:55;;;;;;;1.92;0.93;;;;;;;27.96;32.49;101608.84;5051687;28;20107;-23
2022/08/07 11:40:39;;;;;;;1.65;0.70;;;;;;;28.00;31.55;101599.53;5053398;28;20036;-24
2022/08/07 11:43:20;;;;;;;1.75;0.70;;;;;;;27.86;32.33;101602.31;5048058;28;20030;-24
2022/08/07 11:45:51;;;;;;;1.42;0.90;;;;;;;27.82;32.07;101590.81;5031294;28;20032;-25
2022/08/07 11:48:25;;;;;;;1.95;0.82;;;;;;;27.86;32.69;101591.47;5032852;28;20029;-24
2022/08/07 11:51:19;;;;;;;2.47;1.30;;;;;;;27.92;32.55;101591.06;5031856;28;20083;-25